sensor_id;sensor_type;location;lat;lon;timestamp;pressure;altitude;pressure_sealevel;temperature;humidity
57086;BME280;42964;42.910;23.792;2023-10-13T00:02:26;98096.84;;;10.17;77.52
57086;BME280;42964;42.910;23.792;2023-10-13T00:07:25;98104.53;;;10.07;77.54
57086;BME280;42964;42.910;23.792;2023-10-13T00:12:23;98098.41;;;9.95;78.20
57086;BME280;42964;42.910;23.792;2023-10-13T00:17:22;98078.41;;;9.76;78.18
57086;BME280;42964;42.910;23.792;2023-10-13T00:22:23;98059.28;;;9.59;78.24
57086;BME280;42964;42.910;23.792;2023-10-13T00:27:23;98086.97;;;9.67;78.39
57086;BME280;42964;42.910;23.792;2023-10-13T00:32:28;98095.59;;;9.62;78.66
57086;BME280;42964;42.910;23.792;2023-10-13T00:37:30;98099.84;;;9.58;79.30
57086;BME280;42964;42.910;23.792;2023-10-13T00:42:39;98079.88;;;9.43;79.30
57086;BME280;42964;42.910;23.792;2023-10-13T00:47:49;98092.03;;;9.49;79.42
57086;BME280;42964;42.910;23.792;2023-10-13T00:52:55;98093.75;;;9.47;79.72
57086;BME280;42964;42.910;23.792;2023-10-13T00:57:55;98091.16;;;9.50;79.57
57086;BME280;42964;42.910;23.792;2023-10-13T01:02:58;98099.66;;;9.37;80.57
57086;BME280;42964;42.910;23.792;2023-10-13T01:08:07;98104.78;;;9.29;80.56
57086;BME280;42964;42.910;23.792;2023-10-13T01:13:10;98059.47;;;8.88;80.32
57086;BME280;42964;42.910;23.792;2023-10-13T01:18:09;98108.13;;;9.19;79.90
57086;BME280;42964;42.910;23.792;2023-10-13T01:23:13;98108.94;;;9.14;80.23
57086;BME280;42964;42.910;23.792;2023-10-13T01:28:17;98110.56;;;9.08;79.79
57086;BME280;42964;42.910;23.792;2023-10-13T01:33:19;98093.22;;;8.98;80.14
57086;BME280;42964;42.910;23.792;2023-10-13T01:38:25;98074.94;;;8.85;80.04
57086;BME280;42964;42.910;23.792;2023-10-13T01:43:26;98107.06;;;9.01;80.11
57086;BME280;42964;42.910;23.792;2023-10-13T01:48:24;98111.34;;;8.99;80.14
57086;BME280;42964;42.910;23.792;2023-10-13T01:53:24;98078.28;;;8.72;80.35
57086;BME280;42964;42.910;23.792;2023-10-13T01:58:23;98117.25;;;8.87;80.29
57086;BME280;42964;42.910;23.792;2023-10-13T02:03:22;98101.75;;;8.89;80.46
57086;BME280;42964;42.910;23.792;2023-10-13T02:08:22;98086.19;;;8.86;79.98
57086;BME280;42964;42.910;23.792;2023-10-13T02:13:24;98094.75;;;8.82;80.36
57086;BME280;42964;42.910;23.792;2023-10-13T02:18:24;98093.84;;;8.78;80.95
57086;BME280;42964;42.910;23.792;2023-10-13T02:23:26;98103.28;;;8.73;81.61
57086;BME280;42964;42.910;23.792;2023-10-13T02:28:28;98096.13;;;8.52;82.49
57086;BME280;42964;42.910;23.792;2023-10-13T02:33:32;98067.50;;;8.38;82.25
57086;BME280;42964;42.910;23.792;2023-10-13T02:38:34;98118.59;;;8.56;81.75
57086;BME280;42964;42.910;23.792;2023-10-13T02:43:44;98117.63;;;8.48;81.60
57086;BME280;42964;42.910;23.792;2023-10-13T02:48:43;98119.31;;;8.44;81.00
57086;BME280;42964;42.910;23.792;2023-10-13T02:53:45;98124.34;;;8.35;80.64
57086;BME280;42964;42.910;23.792;2023-10-13T02:58:48;98132.78;;;8.22;80.51
57086;BME280;42964;42.910;23.792;2023-10-13T03:03:51;98124.97;;;8.17;80.58
57086;BME280;42964;42.910;23.792;2023-10-13T03:08:52;98131.03;;;8.18;81.13
57086;BME280;42964;42.910;23.792;2023-10-13T03:13:51;98131.81;;;8.14;81.25
57086;BME280;42964;42.910;23.792;2023-10-13T03:18:51;98134.34;;;8.11;81.43
57086;BME280;42964;42.910;23.792;2023-10-13T03:23:52;98130.84;;;8.07;81.25
57086;BME280;42964;42.910;23.792;2023-10-13T03:28:52;98126.56;;;8.11;81.56
57086;BME280;42964;42.910;23.792;2023-10-13T03:33:52;98118.81;;;8.11;81.89
57086;BME280;42964;42.910;23.792;2023-10-13T03:38:57;98097.13;;;7.98;81.23
57086;BME280;42964;42.910;23.792;2023-10-13T03:43:56;98075.47;;;7.91;81.83
57086;BME280;42964;42.910;23.792;2023-10-13T03:49:06;98096.31;;;8.03;81.94
57086;BME280;42964;42.910;23.792;2023-10-13T03:54:11;98098.06;;;8.04;81.79
57086;BME280;42964;42.910;23.792;2023-10-13T03:59:14;98097.19;;;8.02;81.97
57086;BME280;42964;42.910;23.792;2023-10-13T04:04:17;98052.06;;;7.79;81.30
57086;BME280;42964;42.910;23.792;2023-10-13T04:09:35;98049.41;;;7.74;81.36
57086;BME280;42964;42.910;23.792;2023-10-13T04:14:39;98086.72;;;7.93;81.35
57086;BME280;42964;42.910;23.792;2023-10-13T04:19:58;98105.63;;;7.91;82.07
57086;BME280;42964;42.910;23.792;2023-10-13T04:25:06;98107.97;;;7.75;nan
57086;BME280;42964;42.910;23.792;2023-10-13T04:30:25;98116.88;;;7.41;82.04
57086;BME280;42964;42.910;23.792;2023-10-13T04:35:36;98115.31;;;7.51;81.00
57086;BME280;42964;42.910;23.792;2023-10-13T04:40:46;98119.66;;;7.53;80.30
57086;BME280;42964;42.910;23.792;2023-10-13T04:45:59;98105.66;;;7.40;80.81
57086;BME280;42964;42.910;23.792;2023-10-13T04:51:13;98142.00;;;7.51;80.46
57086;BME280;42964;42.910;23.792;2023-10-13T04:56:30;98141.19;;;7.52;81.00
57086;BME280;42964;42.910;23.792;2023-10-13T05:01:38;98144.66;;;7.56;80.85
57086;BME280;42964;42.910;23.792;2023-10-13T05:06:56;98149.13;;;7.64;81.26
57086;BME280;42964;42.910;23.792;2023-10-13T05:12:13;98166.44;;;7.70;80.83
57086;BME280;42964;42.910;23.792;2023-10-13T05:17:31;98164.88;;;7.80;80.64
57086;BME280;42964;42.910;23.792;2023-10-13T05:22:48;98174.53;;;7.92;80.87
57086;BME280;42964;42.910;23.792;2023-10-13T05:28:06;98186.88;;;8.09;80.54
57086;BME280;42964;42.910;23.792;2023-10-13T05:33:23;98181.97;;;8.26;80.90
57086;BME280;42964;42.910;23.792;2023-10-13T05:38:40;98202.97;;;8.46;80.56
57086;BME280;42964;42.910;23.792;2023-10-13T05:43:58;98198.13;;;8.69;80.34
57086;BME280;42964;42.910;23.792;2023-10-13T05:49:15;98199.25;;;8.91;80.33
57086;BME280;42964;42.910;23.792;2023-10-13T05:54:14;98196.94;;;9.11;80.48
57086;BME280;42964;42.910;23.792;2023-10-13T05:59:13;98208.41;;;9.32;80.31
57086;BME280;42964;42.910;23.792;2023-10-13T06:04:31;98203.50;;;9.58;80.25
57086;BME280;42964;42.910;23.792;2023-10-13T06:09:48;98208.94;;;9.86;80.78
57086;BME280;42964;42.910;23.792;2023-10-13T06:15:06;98208.19;;;9.97;80.92
57086;BME280;42964;42.910;23.792;2023-10-13T06:20:24;98217.91;;;10.22;80.12
57086;BME280;42964;42.910;23.792;2023-10-13T06:25:41;98223.25;;;10.45;79.98
57086;BME280;42964;42.910;23.792;2023-10-13T06:30:59;98221.72;;;10.76;79.22
57086;BME280;42964;42.910;23.792;2023-10-13T06:36:05;98221.88;;;11.00;79.21
57086;BME280;42964;42.910;23.792;2023-10-13T06:41:08;98232.41;;;11.28;78.28
57086;BME280;42964;42.910;23.792;2023-10-13T06:46:07;98216.88;;;11.59;77.77
57086;BME280;42964;42.910;23.792;2023-10-13T06:51:13;98200.47;;;11.97;77.42
57086;BME280;42964;42.910;23.792;2023-10-13T06:56:20;98190.94;;;12.39;75.19
57086;BME280;42964;42.910;23.792;2023-10-13T07:01:26;98158.84;;;12.46;74.23
57086;BME280;42964;42.910;23.792;2023-10-13T07:06:25;98196.91;;;12.90;71.97
57086;BME280;42964;42.910;23.792;2023-10-13T07:11:26;98197.72;;;13.17;71.80
57086;BME280;42964;42.910;23.792;2023-10-13T07:16:43;98205.34;;;13.52;70.46
57086;BME280;42964;42.910;23.792;2023-10-13T07:21:45;98185.09;;;13.98;69.36
57086;BME280;42964;42.910;23.792;2023-10-13T07:26:44;98182.97;;;14.40;67.90
57086;BME280;42964;42.910;23.792;2023-10-13T07:31:46;98183.38;;;14.89;65.85
57086;BME280;42964;42.910;23.792;2023-10-13T07:36:45;98183.69;;;15.34;63.63
57086;BME280;42964;42.910;23.792;2023-10-13T07:41:44;98180.41;;;15.83;62.83
57086;BME280;42964;42.910;23.792;2023-10-13T07:46:42;98187.59;;;16.24;61.50
57086;BME280;42964;42.910;23.792;2023-10-13T07:51:46;98184.06;;;16.27;60.32
57086;BME280;42964;42.910;23.792;2023-10-13T07:56:48;98181.72;;;16.60;59.18
57086;BME280;42964;42.910;23.792;2023-10-13T08:01:48;98172.53;;;16.85;58.04
57086;BME280;42964;42.910;23.792;2023-10-13T08:06:54;98165.00;;;17.12;57.55
57086;BME280;42964;42.910;23.792;2023-10-13T08:12:01;98168.34;;;17.20;56.00
57086;BME280;42964;42.910;23.792;2023-10-13T08:17:01;98174.38;;;17.24;55.93
57086;BME280;42964;42.910;23.792;2023-10-13T08:22:02;98184.78;;;17.28;55.33
57086;BME280;42964;42.910;23.792;2023-10-13T08:27:20;98172.34;;;17.79;54.37
57086;BME280;42964;42.910;23.792;2023-10-13T08:32:47;98180.94;;;18.21;52.49
57086;BME280;42964;42.910;23.792;2023-10-13T08:37:53;98163.72;;;18.44;51.78
57086;BME280;42964;42.910;23.792;2023-10-13T08:42:52;98167.41;;;18.71;48.64
57086;BME280;42964;42.910;23.792;2023-10-13T08:48:10;98152.78;;;18.93;47.81
57086;BME280;42964;42.910;23.792;2023-10-13T08:53:09;98160.81;;;19.18;47.96
57086;BME280;42964;42.910;23.792;2023-10-13T08:58:25;98159.97;;;19.46;46.99
57086;BME280;42964;42.910;23.792;2023-10-13T09:03:44;98161.63;;;19.80;45.83
57086;BME280;42964;42.910;23.792;2023-10-13T09:08:48;98158.75;;;20.14;45.22
57086;BME280;42964;42.910;23.792;2023-10-13T09:14:16;98143.66;;;20.71;44.50
57086;BME280;42964;42.910;23.792;2023-10-13T09:19:31;98142.47;;;21.50;43.61
57086;BME280;42964;42.910;23.792;2023-10-13T09:24:35;98136.16;;;22.21;42.97
57086;BME280;42964;42.910;23.792;2023-10-13T09:29:34;98138.09;;;22.78;41.11
57086;BME280;42964;42.910;23.792;2023-10-13T09:34:37;98123.84;;;23.20;39.95
57086;BME280;42964;42.910;23.792;2023-10-13T09:39:39;98122.97;;;23.39;39.25
57086;BME280;42964;42.910;23.792;2023-10-13T09:44:51;98116.81;;;23.38;37.61
57086;BME280;42964;42.910;23.792;2023-10-13T09:49:53;98115.41;;;23.50;37.75
57086;BME280;42964;42.910;23.792;2023-10-13T10:00:15;98100.22;;;23.73;37.80
57086;BME280;42964;42.910;23.792;2023-10-13T10:05:43;98095.31;;;23.82;37.26
57086;BME280;42964;42.910;23.792;2023-10-13T10:17:06;98059.94;;;24.01;33.47
57086;BME280;42964;42.910;23.792;2023-10-13T10:22:06;98067.09;;;24.51;33.59
57086;BME280;42964;42.910;23.792;2023-10-13T10:27:32;98065.19;;;24.70;33.67
57086;BME280;42964;42.910;23.792;2023-10-13T10:32:38;98064.44;;;24.68;33.17
57086;BME280;42964;42.910;23.792;2023-10-13T10:37:44;98073.66;;;24.77;33.41
57086;BME280;42964;42.910;23.792;2023-10-13T10:42:51;98059.38;;;24.80;31.17
57086;BME280;42964;42.910;23.792;2023-10-13T10:47:51;98041.56;;;24.99;29.66
57086;BME280;42964;42.910;23.792;2023-10-13T10:52:56;98065.88;;;25.07;29.70
57086;BME280;42964;42.910;23.792;2023-10-13T10:58:02;98064.34;;;25.19;30.59
57086;BME280;42964;42.910;23.792;2023-10-13T11:03:05;98058.19;;;25.35;31.08
57086;BME280;42964;42.910;23.792;2023-10-13T11:08:04;98054.56;;;25.51;30.24
57086;BME280;42964;42.910;23.792;2023-10-13T11:13:08;98041.78;;;25.74;30.30
57086;BME280;42964;42.910;23.792;2023-10-13T11:18:31;98045.38;;;26.03;30.35
57086;BME280;42964;42.910;23.792;2023-10-13T11:23:39;98039.72;;;26.09;28.82
57086;BME280;42964;42.910;23.792;2023-10-13T11:28:38;98038.19;;;26.05;28.16
57086;BME280;42964;42.910;23.792;2023-10-13T11:33:43;98030.00;;;26.08;28.91
57086;BME280;42964;42.910;23.792;2023-10-13T11:38:45;98016.16;;;26.17;28.99
57086;BME280;42964;42.910;23.792;2023-10-13T11:43:50;98017.53;;;26.25;27.40
57086;BME280;42964;42.910;23.792;2023-10-13T11:48:49;98015.50;;;26.14;26.86
57086;BME280;42964;42.910;23.792;2023-10-13T11:53:53;98007.41;;;26.15;26.74
57086;BME280;42964;42.910;23.792;2023-10-13T11:58:53;98013.38;;;26.35;26.30
57086;BME280;42964;42.910;23.792;2023-10-13T12:03:52;98012.53;;;26.04;26.52
57086;BME280;42964;42.910;23.792;2023-10-13T12:09:10;98006.06;;;26.08;26.71
57086;BME280;42964;42.910;23.792;2023-10-13T12:14:15;97998.13;;;26.23;26.68
57086;BME280;42964;42.910;23.792;2023-10-13T12:19:36;97997.41;;;26.35;25.87
57086;BME280;42964;42.910;23.792;2023-10-13T12:24:37;97990.09;;;26.39;26.29
57086;BME280;42964;42.910;23.792;2023-10-13T12:29:36;97992.47;;;26.29;25.62
57086;BME280;42964;42.910;23.792;2023-10-13T12:34:35;97996.72;;;26.31;26.01
57086;BME280;42964;42.910;23.792;2023-10-13T12:39:53;97990.06;;;26.24;25.84
57086;BME280;42964;42.910;23.792;2023-10-13T12:45:10;97994.00;;;26.47;25.93
57086;BME280;42964;42.910;23.792;2023-10-13T12:50:28;97993.03;;;26.48;25.98
57086;BME280;42964;42.910;23.792;2023-10-13T12:55:42;97995.41;;;26.53;25.77
57086;BME280;42964;42.910;23.792;2023-10-13T13:00:41;97987.69;;;26.48;26.00
57086;BME280;42964;42.910;23.792;2023-10-13T13:05:47;97981.03;;;26.55;26.43
57086;BME280;42964;42.910;23.792;2023-10-13T13:10:46;97984.09;;;26.49;26.12
57086;BME280;42964;42.910;23.792;2023-10-13T13:15:46;97986.00;;;26.33;26.61
57086;BME280;42964;42.910;23.792;2023-10-13T13:20:45;97975.16;;;26.50;26.61
57086;BME280;42964;42.910;23.792;2023-10-13T13:25:53;97978.66;;;26.51;26.03
57086;BME280;42964;42.910;23.792;2023-10-13T13:30:53;97970.88;;;26.62;25.61
57086;BME280;42964;42.910;23.792;2023-10-13T13:35:53;97967.25;;;26.77;25.73
57086;BME280;42964;42.910;23.792;2023-10-13T13:40:53;97930.69;;;26.52;25.94
57086;BME280;42964;42.910;23.792;2023-10-13T13:45:52;97977.06;;;26.77;25.62
57086;BME280;42964;42.910;23.792;2023-10-13T13:50:55;97974.19;;;26.80;25.82
57086;BME280;42964;42.910;23.792;2023-10-13T13:56:02;97976.19;;;26.76;25.59
57086;BME280;42964;42.910;23.792;2023-10-13T14:01:02;97970.78;;;26.64;25.66
57086;BME280;42964;42.910;23.792;2023-10-13T14:06:22;97969.84;;;26.50;25.87
57086;BME280;42964;42.910;23.792;2023-10-13T14:11:24;97966.25;;;26.37;25.83
57086;BME280;42964;42.910;23.792;2023-10-13T14:16:41;97947.00;;;26.17;25.82
57086;BME280;42964;42.910;23.792;2023-10-13T14:21:43;97967.94;;;26.24;26.04
57086;BME280;42964;42.910;23.792;2023-10-13T14:26:42;97971.97;;;26.15;26.07
57086;BME280;42964;42.910;23.792;2023-10-13T14:31:41;97967.22;;;26.06;26.33
57086;BME280;42964;42.910;23.792;2023-10-13T14:36:41;97974.53;;;26.02;26.78
57086;BME280;42964;42.910;23.792;2023-10-13T14:41:40;97980.41;;;25.93;27.06
57086;BME280;42964;42.910;23.792;2023-10-13T14:46:39;97974.88;;;25.82;27.55
57086;BME280;42964;42.910;23.792;2023-10-13T14:51:38;97970.38;;;25.68;27.79
57086;BME280;42964;42.910;23.792;2023-10-13T14:56:38;97968.44;;;25.56;28.00
57086;BME280;42964;42.910;23.792;2023-10-13T15:01:40;97969.22;;;25.42;28.40
57086;BME280;42964;42.910;23.792;2023-10-13T15:06:39;97969.41;;;25.39;28.30
57086;BME280;42964;42.910;23.792;2023-10-13T15:11:39;97979.53;;;25.16;28.69
57086;BME280;42964;42.910;23.792;2023-10-13T15:16:39;97974.22;;;25.16;28.76
57086;BME280;42964;42.910;23.792;2023-10-13T15:21:38;97977.22;;;25.10;29.53
57086;BME280;42964;42.910;23.792;2023-10-13T15:26:43;97983.22;;;24.98;29.48
57086;BME280;42964;42.910;23.792;2023-10-13T15:31:46;97993.66;;;24.85;31.14
57086;BME280;42964;42.910;23.792;2023-10-13T15:37:03;97993.28;;;24.59;32.22
57086;BME280;42964;42.910;23.792;2023-10-13T15:42:03;97987.78;;;24.12;33.21
57086;BME280;42964;42.910;23.792;2023-10-13T15:47:04;98018.47;;;23.82;34.47
57086;BME280;42964;42.910;23.792;2023-10-13T15:52:03;98018.34;;;23.49;35.03
57086;BME280;42964;42.910;23.792;2023-10-13T15:57:02;98024.38;;;23.15;35.28
57086;BME280;42964;42.910;23.792;2023-10-13T16:02:05;98030.28;;;22.84;36.34
57086;BME280;42964;42.910;23.792;2023-10-13T16:07:06;98035.19;;;22.52;36.20
57086;BME280;42964;42.910;23.792;2023-10-13T16:12:07;98045.28;;;22.23;37.22
57086;BME280;42964;42.910;23.792;2023-10-13T16:17:09;98055.31;;;21.94;37.95
57086;BME280;42964;42.910;23.792;2023-10-13T16:22:08;98064.56;;;21.62;38.53
57086;BME280;42964;42.910;23.792;2023-10-13T16:27:08;98059.56;;;21.32;39.00
57086;BME280;42964;42.910;23.792;2023-10-13T16:32:07;98065.84;;;21.06;39.18
57086;BME280;42964;42.910;23.792;2023-10-13T16:37:07;98061.47;;;20.82;39.96
57086;BME280;42964;42.910;23.792;2023-10-13T16:42:06;98072.81;;;20.60;40.44
57086;BME280;42964;42.910;23.792;2023-10-13T16:47:07;98079.03;;;20.33;40.98
57086;BME280;42964;42.910;23.792;2023-10-13T16:52:06;98068.59;;;20.04;41.54
57086;BME280;42964;42.910;23.792;2023-10-13T16:57:06;98056.53;;;19.72;42.11
57086;BME280;42964;42.910;23.792;2023-10-13T17:02:05;98067.72;;;19.51;43.00
57086;BME280;42964;42.910;23.792;2023-10-13T17:07:04;98080.66;;;19.30;43.16
57086;BME280;42964;42.910;23.792;2023-10-13T17:12:03;98075.09;;;19.11;43.59
57086;BME280;42964;42.910;23.792;2023-10-13T17:17:02;98086.22;;;18.91;43.75
57086;BME280;42964;42.910;23.792;2023-10-13T17:22:02;98093.63;;;18.77;44.60
57086;BME280;42964;42.910;23.792;2023-10-13T17:27:02;98096.88;;;18.54;44.86
57086;BME280;42964;42.910;23.792;2023-10-13T17:32:02;98112.16;;;18.39;45.02
57086;BME280;42964;42.910;23.792;2023-10-13T17:37:01;98103.06;;;18.18;45.93
57086;BME280;42964;42.910;23.792;2023-10-13T17:42:00;98112.25;;;18.02;46.51
57086;BME280;42964;42.910;23.792;2023-10-13T17:46:59;98108.31;;;17.84;46.88
57086;BME280;42964;42.910;23.792;2023-10-13T17:51:59;98101.75;;;17.65;47.32
57086;BME280;42964;42.910;23.792;2023-10-13T17:56:58;98087.63;;;17.33;48.41
57086;BME280;42964;42.910;23.792;2023-10-13T18:01:57;98068.75;;;17.17;48.27
57086;BME280;42964;42.910;23.792;2023-10-13T18:06:56;98109.50;;;17.32;48.71
57086;BME280;42964;42.910;23.792;2023-10-13T18:11:55;98104.78;;;17.07;49.16
57086;BME280;42964;42.910;23.792;2023-10-13T18:16:54;98111.78;;;17.08;49.36
57086;BME280;42964;42.910;23.792;2023-10-13T18:21:53;98114.66;;;16.96;49.73
57086;BME280;42964;42.910;23.792;2023-10-13T18:26:57;98114.88;;;16.85;50.24
57086;BME280;42964;42.910;23.792;2023-10-13T18:31:56;98118.56;;;16.75;50.83
57086;BME280;42964;42.910;23.792;2023-10-13T18:36:55;98102.25;;;16.61;50.70
57086;BME280;42964;42.910;23.792;2023-10-13T18:41:58;98123.22;;;16.59;51.43
57086;BME280;42964;42.910;23.792;2023-10-13T18:46:58;98131.00;;;16.64;51.24
57086;BME280;42964;42.910;23.792;2023-10-13T18:51:57;98061.09;;;16.21;51.66
57086;BME280;42964;42.910;23.792;2023-10-13T18:56:56;98138.88;;;16.62;52.13
57086;BME280;42964;42.910;23.792;2023-10-13T19:01:55;98129.34;;;16.58;51.90
57086;BME280;42964;42.910;23.792;2023-10-13T19:06:55;98131.09;;;16.58;52.05
57086;BME280;42964;42.910;23.792;2023-10-13T19:11:58;98127.63;;;16.59;52.15
57086;BME280;42964;42.910;23.792;2023-10-13T19:16:57;98136.31;;;16.61;52.32
57086;BME280;42964;42.910;23.792;2023-10-13T19:21:56;98126.69;;;16.60;52.26
57086;BME280;42964;42.910;23.792;2023-10-13T19:26:56;98125.84;;;16.59;52.60
57086;BME280;42964;42.910;23.792;2023-10-13T19:31:55;98132.97;;;16.52;53.00
57086;BME280;42964;42.910;23.792;2023-10-13T19:36:54;98117.34;;;16.46;53.55
57086;BME280;42964;42.910;23.792;2023-10-13T19:41:52;98121.78;;;16.44;53.69
57086;BME280;42964;42.910;23.792;2023-10-13T19:46:51;98123.63;;;16.38;54.04
57086;BME280;42964;42.910;23.792;2023-10-13T19:51:50;98119.69;;;16.14;54.88
57086;BME280;42964;42.910;23.792;2023-10-13T19:56:53;98116.28;;;16.08;54.48
57086;BME280;42964;42.910;23.792;2023-10-13T20:01:55;98113.88;;;15.98;54.52
57086;BME280;42964;42.910;23.792;2023-10-13T20:06:53;98128.81;;;15.90;55.13
57086;BME280;42964;42.910;23.792;2023-10-13T20:11:54;98131.59;;;15.80;55.32
57086;BME280;42964;42.910;23.792;2023-10-13T20:16:55;98136.06;;;15.72;55.84
57086;BME280;42964;42.910;23.792;2023-10-13T20:21:55;98101.69;;;15.38;56.80
57086;BME280;42964;42.910;23.792;2023-10-13T20:26:55;98132.34;;;15.27;57.62
57086;BME280;42964;42.910;23.792;2023-10-13T20:31:55;98127.34;;;15.11;58.60
57086;BME280;42964;42.910;23.792;2023-10-13T20:36:54;98122.19;;;15.03;58.75
57086;BME280;42964;42.910;23.792;2023-10-13T20:41:53;98119.78;;;14.90;59.19
57086;BME280;42964;42.910;23.792;2023-10-13T20:46:53;98107.78;;;14.73;59.65
57086;BME280;42964;42.910;23.792;2023-10-13T20:51:55;98113.09;;;14.61;60.56
57086;BME280;42964;42.910;23.792;2023-10-13T20:56:54;98114.16;;;14.48;61.11
57086;BME280;42964;42.910;23.792;2023-10-13T21:01:53;98119.47;;;14.35;61.88
57086;BME280;42964;42.910;23.792;2023-10-13T21:06:53;98125.72;;;14.22;63.05
57086;BME280;42964;42.910;23.792;2023-10-13T21:11:52;98118.03;;;14.05;64.03
57086;BME280;42964;42.910;23.792;2023-10-13T21:16:51;98117.16;;;14.06;63.67
57086;BME280;42964;42.910;23.792;2023-10-13T21:21:51;98122.50;;;13.91;63.99
57086;BME280;42964;42.910;23.792;2023-10-13T21:26:52;98113.00;;;13.87;64.32
57086;BME280;42964;42.910;23.792;2023-10-13T21:31:50;98111.28;;;13.80;64.31
57086;BME280;42964;42.910;23.792;2023-10-13T21:36:51;98093.16;;;13.66;64.98
57086;BME280;42964;42.910;23.792;2023-10-13T21:41:50;98107.06;;;13.63;65.68
57086;BME280;42964;42.910;23.792;2023-10-13T21:46:49;98103.63;;;13.60;65.32
57086;BME280;42964;42.910;23.792;2023-10-13T21:51:47;98109.75;;;13.52;65.55
57086;BME280;42964;42.910;23.792;2023-10-13T21:56:46;98098.47;;;13.44;66.42
57086;BME280;42964;42.910;23.792;2023-10-13T22:01:45;98104.63;;;13.39;66.75
57086;BME280;42964;42.910;23.792;2023-10-13T22:06:44;98079.50;;;13.25;67.08
57086;BME280;42964;42.910;23.792;2023-10-13T22:11:44;98102.09;;;13.26;67.44
57086;BME280;42964;42.910;23.792;2023-10-13T22:16:43;98102.97;;;13.21;68.08
57086;BME280;42964;42.910;23.792;2023-10-13T22:21:42;98095.22;;;13.11;68.19
57086;BME280;42964;42.910;23.792;2023-10-13T22:26:42;98092.63;;;13.08;68.90
57086;BME280;42964;42.910;23.792;2023-10-13T22:31:42;98090.97;;;12.97;68.95
57086;BME280;42964;42.910;23.792;2023-10-13T22:36:41;98078.00;;;12.89;69.22
57086;BME280;42964;42.910;23.792;2023-10-13T22:41:40;98079.75;;;12.81;69.48
57086;BME280;42964;42.910;23.792;2023-10-13T22:46:39;98090.19;;;12.78;70.15
57086;BME280;42964;42.910;23.792;2023-10-13T22:51:40;98086.75;;;12.66;70.07
57086;BME280;42964;42.910;23.792;2023-10-13T22:56:38;98085.06;;;12.56;70.30
57086;BME280;42964;42.910;23.792;2023-10-13T23:01:39;98087.69;;;12.48;70.26
57086;BME280;42964;42.910;23.792;2023-10-13T23:06:42;98093.78;;;12.43;70.49
57086;BME280;42964;42.910;23.792;2023-10-13T23:11:48;98097.28;;;12.34;70.59
57086;BME280;42964;42.910;23.792;2023-10-13T23:16:47;98079.94;;;12.19;71.22
57086;BME280;42964;42.910;23.792;2023-10-13T23:21:48;98090.34;;;12.19;71.38
57086;BME280;42964;42.910;23.792;2023-10-13T23:26:47;98085.13;;;12.19;71.57
57086;BME280;42964;42.910;23.792;2023-10-13T23:31:47;98088.63;;;12.17;71.73
57086;BME280;42964;42.910;23.792;2023-10-13T23:36:47;98088.63;;;12.09;71.61
57086;BME280;42964;42.910;23.792;2023-10-13T23:41:46;98079.97;;;12.07;71.93
57086;BME280;42964;42.910;23.792;2023-10-13T23:46:44;98073.06;;;12.00;72.19
57086;BME280;42964;42.910;23.792;2023-10-13T23:51:44;98021.94;;;11.65;72.25
57086;BME280;42964;42.910;23.792;2023-10-13T23:56:48;98055.72;;;11.83;72.44
